createdAt,value
2018-07-15T00:00:07.777Z,1.83
2018-07-15T00:02:13.757Z,2.40
2018-07-15T00:04:18.896Z,1.97
2018-07-15T00:06:23.463Z,1.57
2018-07-15T00:08:28.877Z,1.87
2018-07-15T00:10:47.170Z,2.20
2018-07-15T00:12:52.616Z,1.70
2018-07-15T00:14:57.591Z,2.13
2018-07-15T00:17:04.109Z,1.50
2018-07-15T00:19:09.223Z,2.20
2018-07-15T00:21:13.955Z,2.50
2018-07-15T00:23:18.950Z,1.83
2018-07-15T00:25:23.994Z,2.07
2018-07-15T00:27:29.341Z,2.63
2018-07-15T00:29:34.490Z,2.10
2018-07-15T00:31:39.735Z,2.00
2018-07-15T00:33:45.312Z,1.77
2018-07-15T00:35:50.108Z,2.50
2018-07-15T00:37:54.959Z,2.50
2018-07-15T00:39:59.800Z,2.40
2018-07-15T00:42:04.580Z,2.00
2018-07-15T00:44:09.717Z,2.20
2018-07-15T00:46:17.285Z,2.60
2018-07-15T00:48:22.203Z,2.40
2018-07-15T00:50:27.095Z,2.40
2018-07-15T00:52:32.036Z,2.67
2018-07-15T00:54:36.940Z,2.53
2018-07-15T00:56:41.636Z,2.40
2018-07-15T00:58:46.372Z,2.40
2018-07-15T01:00:56.110Z,3.00
2018-07-15T01:03:00.879Z,2.40
2018-07-15T01:05:05.768Z,2.17
2018-07-15T01:07:10.547Z,3.10
2018-07-15T01:09:15.324Z,2.50
2018-07-15T01:11:20.008Z,2.17
2018-07-15T01:13:24.589Z,2.80
2018-07-15T01:15:29.233Z,3.07
2018-07-15T01:17:34.001Z,2.93
2018-07-15T01:19:38.769Z,2.63
2018-07-15T01:21:44.980Z,2.87
2018-07-15T01:23:49.758Z,2.80
2018-07-15T01:25:54.672Z,2.50
2018-07-15T01:27:59.566Z,3.43
2018-07-15T01:30:04.381Z,3.30
2018-07-15T01:32:09.117Z,3.03
2018-07-15T01:34:13.815Z,2.80
2018-07-15T01:36:18.643Z,3.00
2018-07-15T01:38:23.450Z,2.93
2018-07-15T01:40:28.232Z,2.40
2018-07-15T01:42:32.987Z,2.80
2018-07-15T01:44:37.704Z,2.97
2018-07-15T01:46:42.430Z,2.87
2018-07-15T01:48:47.156Z,3.30
2018-07-15T01:50:52.025Z,2.87
2018-07-15T01:52:56.789Z,2.70
2018-07-15T01:55:01.538Z,3.53
2018-07-15T01:57:06.330Z,2.87
2018-07-15T01:59:11.879Z,2.97
2018-07-15T02:01:16.730Z,2.93
2018-07-15T02:03:21.590Z,3.20
2018-07-15T02:05:26.242Z,2.93
2018-07-15T02:07:30.914Z,3.90
2018-07-15T02:09:35.793Z,2.70
2018-07-15T02:11:40.498Z,3.27
2018-07-15T02:13:45.319Z,3.47
2018-07-15T02:15:50.388Z,3.20
2018-07-15T02:17:55.410Z,3.00
2018-07-15T02:20:00.254Z,3.27
2018-07-15T02:22:05.030Z,2.90
2018-07-15T02:24:09.871Z,3.20
2018-07-15T02:26:14.589Z,2.97
2018-07-15T02:28:19.344Z,3.17
2018-07-15T02:30:24.068Z,3.60
2018-07-15T02:32:28.757Z,3.47
2018-07-15T02:34:33.523Z,3.07
2018-07-15T02:36:38.316Z,3.37
2018-07-15T02:38:43.029Z,3.07
2018-07-15T02:40:47.754Z,3.50
2018-07-15T02:42:52.483Z,3.30
2018-07-15T02:44:57.169Z,3.60
2018-07-15T02:47:01.885Z,3.50
2018-07-15T02:49:06.894Z,3.60
2018-07-15T02:51:11.695Z,3.47
2018-07-15T02:53:16.438Z,3.37
2018-07-15T02:55:21.244Z,4.03
2018-07-15T02:57:25.931Z,3.70
2018-07-15T02:59:30.715Z,3.30
2018-07-15T03:01:35.419Z,4.23
2018-07-15T03:03:40.282Z,3.23
2018-07-15T03:05:45.095Z,3.60
2018-07-15T03:07:49.833Z,3.10
2018-07-15T03:09:54.563Z,3.77
2018-07-15T03:11:59.323Z,3.77
2018-07-15T03:14:04.069Z,4.27
2018-07-15T03:16:08.764Z,3.50
2018-07-15T03:18:13.489Z,3.70
2018-07-15T03:20:18.202Z,3.07
2018-07-15T03:22:22.976Z,3.67
2018-07-15T03:24:27.610Z,4.17
2018-07-15T03:26:32.251Z,3.70
2018-07-15T03:28:37.035Z,3.60
2018-07-15T03:30:41.777Z,3.70
2018-07-15T03:32:46.482Z,3.83
2018-07-15T03:34:51.282Z,3.40
2018-07-15T03:36:56.035Z,4.63
2018-07-15T03:39:00.761Z,3.97
2018-07-15T03:41:05.494Z,4.63
2018-07-15T03:43:10.268Z,3.07
2018-07-15T03:45:14.985Z,3.90
2018-07-15T03:47:19.726Z,3.90
2018-07-15T03:49:24.406Z,3.47
2018-07-15T03:51:29.169Z,3.90
2018-07-15T03:53:33.868Z,3.70
2018-07-15T03:55:38.550Z,3.57
2018-07-15T03:57:43.275Z,3.83
2018-07-15T03:59:47.999Z,3.57
2018-07-15T04:01:52.818Z,3.03
2018-07-15T04:03:58.140Z,4.50
2018-07-15T04:06:02.968Z,3.60
2018-07-15T04:08:07.702Z,4.50
2018-07-15T04:10:12.462Z,4.23
2018-07-15T04:12:17.269Z,4.10
2018-07-15T04:14:22.160Z,3.93
2018-07-15T04:16:26.899Z,4.40
2018-07-15T04:18:31.888Z,4.20
2018-07-15T04:20:37.725Z,3.70
2018-07-15T04:22:42.627Z,4.60
2018-07-15T04:24:47.679Z,4.13
2018-07-15T04:26:52.555Z,3.73
2018-07-15T04:28:57.600Z,3.30
2018-07-15T04:31:02.314Z,3.90
2018-07-15T04:33:07.834Z,3.73
2018-07-15T04:35:13.054Z,4.23
2018-07-15T04:37:18.160Z,4.70
2018-07-15T04:39:23.190Z,4.33
2018-07-15T04:41:28.026Z,4.33
2018-07-15T04:43:33.243Z,4.50
2018-07-15T04:45:38.219Z,3.80
2018-07-15T04:47:43.330Z,4.30
2018-07-15T04:49:48.287Z,4.33
2018-07-15T04:51:53.187Z,3.97
2018-07-15T04:53:57.917Z,5.10
2018-07-15T04:56:02.656Z,4.67
2018-07-15T04:58:07.826Z,4.80
2018-07-15T05:00:12.700Z,4.57
2018-07-15T05:02:17.664Z,5.10
2018-07-15T05:04:22.534Z,4.20
2018-07-15T05:06:27.602Z,4.43
2018-07-15T05:08:32.511Z,3.90
2018-07-15T05:10:37.480Z,4.30
2018-07-15T05:12:42.169Z,4.20
2018-07-15T05:14:46.988Z,5.00
2018-07-15T05:16:51.736Z,5.77
2018-07-15T05:18:56.469Z,4.20
2018-07-15T05:21:01.217Z,4.37
2018-07-15T05:23:06.752Z,3.73
2018-07-15T05:25:11.530Z,4.50
2018-07-15T05:27:17.268Z,4.30
2018-07-15T05:29:22.754Z,3.20
2018-07-15T05:31:27.589Z,5.00
2018-07-15T05:33:32.516Z,4.23
2018-07-15T05:35:37.366Z,4.70
2018-07-15T05:37:42.169Z,4.70
2018-07-15T05:39:46.966Z,4.23
2018-07-15T05:41:52.003Z,4.37
2018-07-15T05:43:56.962Z,4.27
2018-07-15T05:46:01.753Z,5.33
2018-07-15T05:48:06.505Z,4.13
2018-07-15T05:50:12.299Z,4.63
2018-07-15T05:52:17.276Z,4.43
2018-07-15T05:54:23.261Z,4.50
2018-07-15T05:56:28.691Z,4.77
2018-07-15T05:58:33.951Z,4.50
2018-07-15T06:00:38.864Z,4.43
2018-07-15T06:02:43.665Z,4.17
2018-07-15T06:06:49.911Z,4.97
2018-07-15T06:08:55.656Z,4.33
2018-07-15T06:11:02.103Z,3.63
2018-07-15T06:13:07.904Z,4.77
2018-07-15T06:15:13.659Z,4.50
2018-07-15T06:17:20.603Z,4.27
2018-07-15T06:19:26.322Z,3.83
2018-07-15T06:21:32.645Z,3.70
2018-07-15T06:23:39.408Z,3.77
2018-07-15T06:25:45.330Z,4.27
2018-07-15T06:27:51.269Z,4.67
2018-07-15T06:29:57.398Z,4.57
2018-07-15T06:32:03.703Z,3.83
2018-07-15T06:34:09.877Z,3.73
2018-07-15T06:36:15.965Z,4.70
2018-07-15T06:38:23.980Z,4.30
2018-07-15T06:40:30.342Z,4.20
2018-07-15T06:42:36.652Z,3.97
2018-07-15T06:44:44.614Z,4.33
2018-07-15T06:46:50.560Z,5.00
2018-07-15T06:48:57.294Z,4.90
2018-07-15T06:51:04.341Z,3.90
2018-07-15T06:53:10.560Z,3.57
2018-07-15T06:55:17.185Z,4.20
2018-07-15T06:57:23.470Z,4.10
2018-07-15T06:59:29.362Z,4.33
2018-07-15T07:01:34.807Z,3.30
2018-07-15T07:03:40.878Z,4.30
2018-07-15T07:05:47.368Z,3.50
2018-07-15T07:07:53.526Z,3.77
2018-07-15T07:09:59.319Z,3.77
2018-07-15T07:12:04.884Z,3.80
2018-07-15T07:14:11.436Z,3.60
2018-07-15T07:16:17.911Z,4.10
2018-07-15T07:18:24.560Z,2.97
2018-07-15T07:20:32.539Z,3.30
2018-07-15T07:22:39.420Z,2.90
2018-07-15T07:24:47.707Z,2.70
2018-07-15T07:26:58.382Z,2.80
2018-07-15T07:29:04.575Z,2.60
2018-07-15T07:31:11.468Z,2.93
2018-07-15T07:33:18.237Z,2.17
2018-07-15T07:35:25.144Z,2.63
2018-07-15T07:37:31.984Z,2.17
2018-07-15T07:39:40.080Z,2.33
2018-07-15T07:41:47.517Z,2.50
2018-07-15T07:43:54.159Z,1.90
2018-07-15T07:46:01.590Z,1.90
2018-07-15T07:48:08.213Z,1.90
2018-07-15T07:50:14.325Z,2.17
2018-07-15T07:52:21.446Z,1.93
2018-07-15T07:54:29.049Z,1.80
2018-07-15T07:56:35.647Z,1.57
2018-07-15T07:58:42.134Z,1.57
2018-07-15T08:00:48.112Z,1.53
2018-07-15T08:02:54.018Z,1.40
2018-07-15T08:05:00.456Z,1.27
2018-07-15T08:07:06.766Z,1.13
2018-07-15T08:09:13.256Z,0.90
2018-07-15T08:11:19.926Z,1.07
2018-07-15T08:13:29.054Z,1.37
2018-07-15T08:15:35.459Z,1.33
2018-07-15T08:17:42.042Z,1.27
2018-07-15T08:19:48.036Z,1.37
2018-07-15T08:21:54.828Z,1.40
2018-07-15T08:24:04.536Z,1.23
2018-07-15T08:26:10.734Z,1.30
2018-07-15T08:28:17.007Z,1.30
2018-07-15T08:30:39.229Z,1.60
2018-07-15T08:32:45.786Z,1.53
2018-07-15T08:34:51.873Z,2.17
2018-07-15T08:36:58.761Z,1.77
2018-07-15T08:39:04.756Z,1.50
2018-07-15T08:41:11.993Z,1.50
2018-07-15T08:43:18.844Z,1.50
2018-07-15T08:45:25.563Z,1.20
2018-07-15T08:47:31.820Z,1.60
2018-07-15T08:49:38.502Z,1.30
2018-07-15T08:51:45.139Z,1.37
2018-07-15T08:53:54.245Z,1.50
2018-07-15T08:56:02.166Z,1.30
2018-07-15T08:58:12.424Z,1.87
2018-07-15T09:00:18.959Z,1.53
2018-07-15T09:02:31.873Z,1.40
2018-07-15T09:04:41.318Z,1.40
2018-07-15T09:06:50.044Z,1.77
2018-07-15T09:08:57.325Z,1.70
2018-07-15T09:11:06.358Z,1.40
2018-07-15T09:13:12.341Z,1.20
2018-07-15T09:15:20.771Z,1.23
2018-07-15T09:17:29.477Z,1.13
2018-07-15T09:19:35.883Z,0.90
2018-07-15T09:21:43.064Z,0.90
2018-07-15T09:23:54.728Z,1.00
2018-07-15T09:26:06.897Z,0.83
2018-07-15T09:28:16.405Z,1.20
2018-07-15T09:30:23.301Z,1.13
2018-07-15T09:32:30.423Z,1.00
2018-07-15T09:34:37.934Z,0.90
2018-07-15T09:36:45.736Z,0.80
2018-07-15T09:38:53.673Z,1.30
2018-07-15T09:41:02.143Z,1.13
2018-07-15T09:43:14.084Z,1.27
2018-07-15T09:45:20.583Z,0.80
2018-07-15T09:47:27.111Z,1.30
2018-07-15T09:49:33.715Z,1.10
2018-07-15T09:51:42.902Z,1.10
2018-07-15T09:53:58.272Z,0.97
2018-07-15T09:56:18.382Z,1.17
2018-07-15T10:00:42.753Z,1.10
2018-07-15T10:02:55.985Z,1.50
2018-07-15T10:05:00.969Z,1.43
2018-07-15T10:07:06.856Z,2.00
2018-07-15T10:09:12.214Z,1.27
2018-07-15T10:11:17.691Z,1.17
2018-07-15T10:13:23.452Z,1.70
2018-07-15T10:15:28.746Z,1.23
2018-07-15T10:17:35.466Z,1.57
2018-07-15T10:19:42.526Z,1.93
2018-07-15T10:21:47.619Z,1.83
2018-07-15T10:23:52.553Z,2.03
2018-07-15T10:25:57.420Z,1.70
2018-07-15T10:28:02.994Z,2.07
2018-07-15T10:30:08.155Z,2.60
2018-07-15T10:32:13.425Z,1.50
2018-07-15T10:34:18.702Z,1.70
2018-07-15T10:36:23.863Z,1.50
2018-07-15T10:38:29.014Z,1.60
2018-07-15T10:40:33.501Z,1.70
2018-07-15T10:42:39.588Z,1.37
2018-07-15T10:44:46.628Z,1.80
2018-07-15T10:46:59.977Z,1.40
2018-07-15T10:49:09.058Z,1.53
2018-07-15T10:51:19.649Z,2.20
2018-07-15T10:53:24.867Z,1.90
2018-07-15T10:55:29.908Z,1.87
2018-07-15T10:57:35.524Z,1.93
2018-07-15T10:59:40.920Z,2.10
2018-07-15T11:01:46.108Z,2.07
2018-07-15T11:03:51.583Z,1.77
2018-07-15T11:05:56.456Z,1.63
2018-07-15T11:08:01.374Z,1.63
2018-07-15T11:10:06.513Z,1.70
2018-07-15T11:12:12.675Z,2.30
2018-07-15T11:14:18.960Z,1.90
2018-07-15T11:16:35.951Z,1.60
2018-07-15T11:18:40.821Z,1.93
2018-07-15T11:20:45.889Z,1.30
2018-07-15T11:22:50.809Z,1.53
2018-07-15T11:24:55.707Z,1.67
2018-07-15T11:27:01.024Z,1.03
2018-07-15T11:29:06.042Z,1.20
2018-07-15T11:31:11.522Z,1.07
2018-07-15T11:33:16.304Z,1.90
2018-07-15T11:35:21.241Z,1.30
2018-07-15T11:37:26.389Z,1.50
2018-07-15T11:39:31.285Z,1.30
2018-07-15T11:41:36.373Z,1.40
2018-07-15T11:43:41.318Z,1.30
2018-07-15T11:45:46.100Z,1.70
2018-07-15T11:47:51.477Z,1.33
2018-07-15T11:49:56.709Z,1.50
2018-07-15T11:52:01.665Z,1.37
2018-07-15T11:54:06.751Z,1.33
2018-07-15T11:56:11.789Z,1.47
2018-07-15T11:58:17.482Z,1.30
2018-07-15T12:00:22.340Z,1.30
2018-07-15T12:02:27.148Z,1.10
2018-07-15T12:04:32.249Z,1.50
2018-07-15T12:06:37.219Z,1.37
2018-07-15T12:08:42.441Z,1.50
2018-07-15T12:10:50.019Z,1.30
2018-07-15T12:12:54.887Z,1.23
2018-07-15T12:14:59.733Z,1.10
2018-07-15T12:17:04.931Z,1.00
2018-07-15T12:19:09.898Z,1.53
2018-07-15T12:21:15.157Z,1.50
2018-07-15T12:23:20.697Z,1.40
2018-07-15T12:25:26.283Z,1.23
2018-07-15T12:27:31.203Z,1.20
2018-07-15T12:29:36.045Z,1.40
2018-07-15T12:31:41.139Z,1.10
2018-07-15T12:33:46.548Z,1.47
2018-07-15T12:35:51.723Z,1.57
2018-07-15T12:37:56.476Z,1.80
2018-07-15T12:40:01.938Z,1.40
2018-07-15T12:42:08.664Z,1.67
2018-07-15T12:44:13.701Z,1.37
2018-07-15T12:46:18.600Z,1.60
2018-07-15T12:48:23.933Z,1.90
2018-07-15T12:50:28.880Z,1.30
2018-07-15T12:52:33.962Z,1.30
2018-07-15T12:54:39.909Z,1.40
2018-07-15T12:56:44.802Z,1.30
2018-07-15T12:58:50.603Z,1.23
2018-07-15T13:00:55.379Z,1.30
2018-07-15T13:03:00.140Z,1.50
2018-07-15T13:05:05.388Z,1.20
2018-07-15T13:07:10.225Z,1.03
2018-07-15T13:09:14.991Z,1.30
2018-07-15T13:11:21.948Z,1.30
2018-07-15T13:13:26.967Z,1.37
2018-07-15T13:15:32.021Z,1.60
2018-07-15T13:17:36.813Z,1.30
2018-07-15T13:19:41.889Z,1.17
2018-07-15T13:21:47.060Z,1.23
2018-07-15T13:23:52.063Z,1.10
2018-07-15T13:25:56.952Z,1.20
2018-07-15T13:28:02.613Z,1.03
2018-07-15T13:30:07.809Z,1.10
2018-07-15T13:32:12.967Z,1.40
2018-07-15T13:34:18.098Z,1.33
2018-07-15T13:36:23.106Z,1.50
2018-07-15T13:38:27.953Z,1.20
2018-07-15T13:40:33.105Z,1.17
2018-07-15T13:42:38.488Z,1.23
2018-07-15T13:44:44.055Z,1.10
2018-07-15T13:46:52.207Z,1.30
2018-07-15T13:48:57.289Z,1.13
2018-07-15T13:51:02.269Z,1.30
2018-07-15T13:53:07.404Z,1.00
2018-07-15T13:55:13.480Z,1.17
2018-07-15T13:57:18.490Z,1.20
2018-07-15T13:59:23.946Z,1.67
2018-07-15T14:01:32.573Z,1.10
2018-07-15T14:03:39.279Z,1.30
2018-07-15T14:05:49.255Z,1.83
2018-07-15T14:07:56.863Z,1.10
2018-07-15T14:10:04.795Z,1.10
2018-07-15T14:12:12.263Z,1.20
2018-07-15T14:14:17.947Z,1.40
2018-07-15T14:16:25.241Z,1.10
2018-07-15T14:18:30.508Z,1.20
2018-07-15T14:20:52.069Z,1.20
2018-07-15T14:22:56.926Z,1.00
2018-07-15T14:25:02.156Z,0.87
2018-07-15T14:27:07.032Z,1.10
2018-07-15T14:29:12.302Z,1.10
2018-07-15T14:31:17.175Z,1.20
2018-07-15T14:33:22.318Z,1.00
2018-07-15T14:35:27.338Z,0.90
2018-07-15T14:37:33.288Z,1.30
2018-07-15T14:39:40.520Z,1.17
2018-07-15T14:41:45.551Z,1.00
2018-07-15T14:43:50.812Z,0.90
2018-07-15T14:45:55.819Z,0.90
2018-07-15T14:48:00.431Z,1.00
2018-07-15T14:50:05.810Z,1.00
2018-07-15T14:52:10.920Z,1.20
2018-07-15T14:54:15.936Z,0.90
2018-07-15T14:56:21.372Z,1.10
2018-07-15T14:58:26.482Z,0.87
2018-07-15T15:00:32.845Z,0.80
2018-07-15T15:02:38.118Z,1.03
2018-07-15T15:04:43.307Z,0.77
2018-07-15T15:06:48.458Z,1.10
2018-07-15T15:08:53.503Z,0.87
2018-07-15T15:10:59.166Z,0.90
2018-07-15T15:13:04.300Z,0.93
2018-07-15T15:15:09.624Z,0.67
2018-07-15T15:17:14.653Z,0.70
2018-07-15T15:19:20.169Z,1.17
2018-07-15T15:21:25.616Z,0.90
2018-07-15T15:23:30.826Z,1.27
2018-07-15T15:25:36.583Z,1.23
2018-07-15T15:27:42.727Z,0.90
2018-07-15T15:29:48.221Z,1.10
2018-07-15T15:31:53.995Z,0.90
2018-07-15T15:33:58.937Z,0.97
2018-07-15T15:36:05.991Z,0.90
2018-07-15T15:38:12.983Z,0.93
2018-07-15T15:40:18.695Z,0.73
2018-07-15T15:42:24.576Z,0.83
2018-07-15T15:44:29.971Z,1.07
2018-07-15T15:46:34.883Z,0.80
2018-07-15T15:48:40.701Z,0.70
2018-07-15T15:50:46.985Z,1.27
2018-07-15T15:52:52.403Z,1.10
2018-07-15T15:54:57.209Z,1.03
2018-07-15T15:57:02.266Z,0.83
2018-07-15T15:59:08.019Z,1.33
2018-07-15T16:01:13.526Z,0.90
2018-07-15T16:03:19.416Z,0.80
2018-07-15T16:05:24.195Z,1.33
2018-07-15T16:07:30.113Z,1.27
2018-07-15T16:09:35.258Z,1.00
2018-07-15T16:11:40.772Z,0.90
2018-07-15T16:13:49.317Z,0.90
2018-07-15T16:15:54.387Z,1.50
2018-07-15T16:17:59.304Z,1.20
2018-07-15T16:20:05.109Z,1.00
2018-07-15T16:22:10.030Z,1.07
2018-07-15T16:24:14.931Z,1.40
2018-07-15T16:26:20.213Z,1.17
2018-07-15T16:28:24.940Z,1.07
2018-07-15T16:30:29.964Z,1.10
2018-07-15T16:32:34.985Z,0.90
2018-07-15T16:34:39.873Z,1.20
2018-07-15T16:36:44.801Z,0.90
2018-07-15T16:38:49.997Z,1.10
2018-07-15T16:40:55.002Z,0.80
2018-07-15T16:43:03.021Z,1.10
2018-07-15T16:45:08.441Z,0.73
2018-07-15T16:47:14.090Z,0.97
2018-07-15T16:49:19.060Z,1.00
2018-07-15T16:51:24.311Z,0.83
2018-07-15T16:53:30.296Z,0.70
2018-07-15T16:55:35.595Z,0.80
2018-07-15T16:57:42.553Z,0.80
2018-07-15T16:59:47.617Z,0.90
2018-07-15T17:01:52.549Z,0.70
2018-07-15T17:03:58.477Z,0.90
2018-07-15T17:06:03.659Z,1.10
2018-07-15T17:08:08.561Z,0.90
2018-07-15T17:10:13.828Z,0.80
2018-07-15T17:12:19.149Z,1.20
2018-07-15T17:14:24.096Z,1.17
2018-07-15T17:16:29.204Z,1.20
2018-07-15T17:18:34.026Z,1.67
2018-07-15T17:20:39.069Z,0.90
2018-07-15T17:22:43.936Z,0.90
2018-07-15T17:24:49.191Z,1.32
2018-07-15T17:26:54.324Z,0.80
2018-07-15T17:28:59.264Z,0.95
2018-07-15T17:31:04.240Z,0.90
2018-07-15T17:33:10.683Z,1.10
2018-07-15T17:35:15.714Z,0.60
2018-07-15T17:37:20.688Z,0.80
2018-07-15T17:39:25.808Z,1.00
2018-07-15T17:41:31.089Z,0.80
2018-07-15T17:43:35.761Z,0.72
2018-07-15T17:45:43.590Z,0.90
2018-07-15T17:47:48.796Z,0.80
2018-07-15T17:49:54.070Z,1.10
2018-07-15T17:51:59.581Z,0.80
2018-07-15T17:54:04.699Z,0.90
2018-07-15T17:56:09.980Z,1.00
2018-07-15T17:58:15.252Z,0.85
2018-07-15T18:00:21.047Z,1.00
2018-07-15T18:02:25.993Z,1.00
2018-07-15T18:04:30.860Z,1.25
2018-07-15T18:06:36.572Z,0.90
2018-07-15T18:08:43.717Z,0.70
2018-07-15T18:10:49.030Z,0.93
2018-07-15T18:12:54.115Z,0.80
2018-07-15T18:14:59.351Z,1.35
2018-07-15T18:17:05.610Z,0.80
2018-07-15T18:19:11.332Z,1.15
2018-07-15T18:21:17.187Z,3.92
2018-07-15T18:23:23.856Z,1.90
2018-07-15T18:25:29.061Z,0.90
2018-07-15T18:27:36.782Z,2.23
2018-07-15T18:29:42.530Z,1.37
2018-07-15T18:31:48.178Z,0.80
2018-07-15T18:33:54.560Z,0.83
2018-07-15T18:36:03.685Z,0.70
2018-07-15T18:38:10.916Z,1.23
2018-07-15T18:40:18.315Z,0.80
2018-07-15T18:42:25.528Z,0.73
2018-07-15T18:44:33.396Z,0.97
2018-07-15T18:46:40.612Z,0.80
2018-07-15T18:48:48.443Z,1.00
2018-07-15T18:50:55.457Z,1.00
2018-07-15T18:53:03.492Z,0.60
2018-07-15T18:55:11.462Z,1.00
2018-07-15T18:57:19.248Z,0.50
2018-07-15T18:59:24.873Z,0.80
2018-07-15T19:01:31.597Z,0.80
2018-07-15T19:03:38.345Z,0.90
2018-07-15T19:05:44.937Z,0.80
2018-07-15T19:07:51.392Z,0.93
2018-07-15T19:09:58.950Z,0.70
2018-07-15T19:12:04.225Z,0.77
2018-07-15T19:14:10.697Z,0.80
2018-07-15T19:16:17.173Z,0.97
2018-07-15T19:18:24.202Z,0.70
2018-07-15T19:20:30.408Z,0.70
2018-07-15T19:22:37.437Z,1.10
2018-07-15T19:24:43.096Z,0.93
2018-07-15T19:26:49.451Z,0.87
2018-07-15T19:28:56.767Z,0.90
2018-07-15T19:31:02.193Z,0.80
2018-07-15T19:33:08.164Z,1.20
2018-07-15T19:35:17.597Z,0.63
2018-07-15T19:37:27.621Z,0.80
2018-07-15T19:39:35.008Z,1.00
2018-07-15T19:41:42.291Z,1.00
2018-07-15T19:43:51.554Z,0.90
2018-07-15T19:45:59.916Z,0.67
2018-07-15T19:48:09.720Z,0.70
2018-07-15T19:50:25.746Z,0.73
2018-07-15T19:52:31.726Z,0.73
2018-07-15T19:54:56.191Z,1.47
2018-07-15T19:57:04.356Z,0.80
2018-07-15T19:59:16.774Z,0.70
2018-07-15T20:01:26.457Z,1.47
2018-07-15T20:03:33.272Z,0.90
2018-07-15T20:05:39.224Z,0.83
2018-07-15T20:07:45.456Z,1.17
2018-07-15T20:09:54.718Z,0.80
2018-07-15T20:12:00.721Z,0.80
2018-07-15T20:14:19.113Z,0.80
2018-07-15T20:16:27.569Z,0.80
2018-07-15T20:18:33.269Z,0.80
2018-07-15T20:20:47.695Z,0.77
2018-07-15T20:22:53.926Z,0.63
2018-07-15T20:25:13.116Z,0.80
2018-07-15T20:27:20.488Z,0.70
2018-07-15T20:29:27.452Z,0.97
2018-07-15T20:31:36.150Z,1.00
2018-07-15T20:33:45.915Z,1.10
2018-07-15T20:35:52.465Z,0.70
2018-07-15T20:38:00.213Z,0.80
2018-07-15T20:40:05.602Z,1.20
2018-07-15T20:42:10.741Z,0.90
2018-07-15T20:44:16.362Z,0.87
2018-07-15T20:46:21.746Z,0.60
2018-07-15T20:48:26.752Z,1.17
2018-07-15T20:50:32.161Z,0.60
2018-07-15T20:52:37.703Z,0.63
2018-07-15T20:54:42.685Z,0.87
2018-07-15T20:56:47.778Z,0.80
2018-07-15T20:58:52.588Z,0.73
2018-07-15T21:00:57.893Z,1.37
2018-07-15T21:03:03.222Z,0.70
2018-07-15T21:05:08.762Z,0.80
2018-07-15T21:07:16.014Z,0.90
2018-07-15T21:09:20.983Z,0.80
2018-07-15T21:11:26.474Z,0.80
2018-07-15T21:13:31.742Z,1.13
2018-07-15T21:15:36.744Z,0.97
2018-07-15T21:17:42.335Z,0.80
2018-07-15T21:19:47.379Z,0.90
2018-07-15T21:21:52.584Z,0.90
2018-07-15T21:23:57.600Z,1.00
2018-07-15T21:26:02.549Z,0.80
2018-07-15T21:28:08.194Z,1.00
2018-07-15T21:30:13.288Z,1.33
2018-07-15T21:32:18.591Z,1.20
2018-07-15T21:34:24.039Z,1.47
2018-07-15T21:36:29.302Z,0.80
2018-07-15T21:38:34.273Z,0.90
2018-07-15T21:40:39.653Z,1.00
2018-07-15T21:42:44.631Z,0.90
2018-07-15T21:44:49.710Z,1.03
2018-07-15T21:46:54.944Z,1.40
2018-07-15T21:49:00.338Z,0.87
2018-07-15T21:51:04.924Z,0.70
2018-07-15T21:53:09.986Z,1.27
2018-07-15T21:55:15.941Z,0.80
2018-07-15T21:57:21.117Z,1.00
2018-07-15T21:59:26.222Z,0.80
2018-07-15T22:01:40.438Z,0.77
2018-07-15T22:03:45.447Z,0.70
2018-07-15T22:05:52.205Z,0.70
2018-07-15T22:08:14.414Z,1.20
2018-07-15T22:10:33.773Z,1.13
2018-07-15T22:12:38.734Z,0.83
2018-07-15T22:14:43.679Z,0.83
2018-07-15T22:16:48.657Z,0.83
2018-07-15T22:18:53.566Z,1.10
2018-07-15T22:20:58.839Z,1.10
2018-07-15T22:23:03.700Z,1.10
2018-07-15T22:25:08.959Z,0.70
2018-07-15T22:27:14.287Z,0.80
2018-07-15T22:29:19.305Z,0.93
2018-07-15T22:31:24.976Z,0.73
2018-07-15T22:33:29.994Z,1.00
2018-07-15T22:35:35.213Z,1.00
2018-07-15T22:37:40.685Z,0.90
2018-07-15T22:39:45.673Z,1.30
2018-07-15T22:41:50.485Z,0.60
2018-07-15T22:43:55.258Z,0.90
2018-07-15T22:46:00.154Z,1.00
2018-07-15T22:48:05.073Z,0.90
2018-07-15T22:50:09.900Z,0.70
2018-07-15T22:52:14.977Z,0.90
2018-07-15T22:54:19.826Z,0.90
2018-07-15T22:56:24.612Z,0.90
2018-07-15T22:58:29.270Z,1.00
2018-07-15T23:00:34.154Z,0.93
2018-07-15T23:02:38.993Z,0.80
2018-07-15T23:05:58.225Z,0.60
2018-07-15T23:08:03.505Z,0.77
2018-07-15T23:10:08.228Z,0.90
2018-07-15T23:12:13.168Z,0.80
2018-07-15T23:14:18.282Z,0.90
2018-07-15T23:16:23.334Z,0.50
2018-07-15T23:18:28.477Z,1.00
2018-07-15T23:20:34.365Z,0.70
2018-07-15T23:22:39.360Z,1.17
2018-07-15T23:24:44.311Z,0.77
2018-07-15T23:26:49.083Z,0.70
2018-07-15T23:28:53.852Z,0.80
2018-07-15T23:30:58.599Z,0.73
2018-07-15T23:33:04.109Z,0.50
2018-07-15T23:35:09.309Z,0.73
2018-07-15T23:37:14.294Z,1.00
2018-07-15T23:39:19.473Z,0.70
2018-07-15T23:41:24.628Z,0.90
2018-07-15T23:43:29.533Z,1.00
2018-07-15T23:45:35.127Z,0.80
2018-07-15T23:47:40.276Z,0.80
2018-07-15T23:49:45.279Z,0.63
2018-07-15T23:51:50.103Z,0.80
2018-07-15T23:53:55.304Z,0.90
2018-07-15T23:56:00.166Z,0.70
2018-07-15T23:58:04.971Z,0.73
